This is the latest recevied weather packets stored in our database for station/object KA7KDX-4. If no packets are shown the sender has not sent any weather packets the latest 10 day(s).
| Time | Temp. | Humidity | Pressure | Rain* | Wind** | Luminosity | Snow |
|---|---|---|---|---|---|---|---|
| 1777822205 | 17.78° C | 26% | 1009.6 hPa | 0 mm | - | - | - |
| 1777821905 | 17.78° C | 26% | 1009.9 hPa | 0 mm | - | - | - |
| 1777821605 | 17.22° C | 27% | 1010.2 hPa | 0 mm | - | - | - |
| 1777821306 | 16.67° C | 28% | 1010.3 hPa | 0 mm | - | - | - |
| 1777821006 | 16.67° C | 28% | 1010.4 hPa | 0 mm | - | - | - |
| 1777820706 | 16.67° C | 28% | 1010.5 hPa | 0 mm | - | - | - |
| 1777820406 | 16.11° C | 28% | 1010.7 hPa | 0 mm | - | - | - |
| 1777820106 | 16.11° C | 28% | 1010.8 hPa | 0 mm | - | - | - |
| 1777819806 | 15.56° C | 29% | 1010.9 hPa | 0 mm | - | - | - |
| 1777819505 | 15.56° C | 29% | 1011 hPa | 0 mm | - | - | - |
| 1777819205 | 15.56° C | 29% | 1011.1 hPa | 0 mm | - | - | - |
| 1777818905 | 15.56° C | 29% | 1011.2 hPa | 0 mm | - | - | - |
| 1777818605 | 15.56° C | 29% | 1011.2 hPa | 0.25 mm | - | - | - |
| 1777818306 | 15.56° C | 29% | 1011.2 hPa | 0.51 mm | - | - | - |
| 1777818006 | 15° C | 29% | 1011.3 hPa | 0.51 mm | - | - | - |
| 1777817706 | 15° C | 29% | 1011.3 hPa | 0.25 mm | - | - | - |
| 1777817405 | 15° C | 29% | 1011.3 hPa | 0 mm | - | - | - |
| 1777817106 | 15° C | 29% | 1011.4 hPa | 0 mm | - | - | - |
| 1777816805 | 14.44° C | 29% | 1011.6 hPa | 0 mm | - | - | - |
| 1777816505 | 13.89° C | 30% | 1011.9 hPa | 0 mm | - | - | - |
| 1777816205 | 13.33° C | 29% | 1012.3 hPa | 0 mm | - | - | - |
| 1777815905 | 12.22° C | 30% | 1012.8 hPa | 0 mm | - | - | - |
| 1777815606 | 11.67° C | 32% | 1013.1 hPa | 0 mm | - | - | - |
| 1777815306 | 11.67° C | 31% | 1013.1 hPa | 0 mm | - | - | - |
| 1777815006 | 11.11° C | 31% | 1013.3 hPa | 0 mm | - | - | - |
* Rain latest hour (hover to see other rain measurements)
** Current wind speed in m/s (hover to see current wind gust speed)